sensor_id;sensor_type;location;lat;lon;timestamp;pressure;altitude;pressure_sealevel;temperature;humidity
53619;BME280;68717;53.040;18.488;2023-04-05T00:00:08;102013.16;;;-1.10;100.00
53619;BME280;68717;53.040;18.488;2023-04-05T00:00:42;102017.56;;;-1.09;100.00
53619;BME280;68717;53.040;18.488;2023-04-05T00:00:59;102012.31;;;-1.10;100.00
53619;BME280;68717;53.040;18.488;2023-04-05T00:01:12;102014.03;;;-1.09;100.00
53619;BME280;68717;53.040;18.488;2023-04-05T00:01:25;102017.56;;;-1.09;100.00
53619;BME280;68717;53.040;18.488;2023-04-05T00:01:38;102018.41;;;-1.08;100.00
53619;BME280;68717;53.040;18.488;2023-04-05T00:01:51;102016.66;;;-1.09;100.00
53619;BME280;68717;53.040;18.488;2023-04-05T00:02:04;102014.00;;;-1.08;100.00
53619;BME280;68717;53.040;18.488;2023-04-05T00:02:22;102023.66;;;-1.07;100.00
53619;BME280;68717;53.040;18.488;2023-04-05T00:02:36;102019.25;;;-1.06;100.00
53619;BME280;68717;53.040;18.488;2023-04-05T00:02:52;102017.50;;;-1.07;100.00
53619;BME280;68717;53.040;18.488;2023-04-05T00:03:05;102021.03;;;-1.07;100.00
53619;BME280;68717;53.040;18.488;2023-04-05T00:03:21;102017.50;;;-1.07;100.00
53619;BME280;68717;53.040;18.488;2023-04-05T00:03:35;102022.78;;;-1.07;100.00
53619;BME280;68717;53.040;18.488;2023-04-05T00:03:48;102020.13;;;-1.07;100.00
53619;BME280;68717;53.040;18.488;2023-04-05T00:04:01;102018.41;;;-1.07;100.00
53619;BME280;68717;53.040;18.488;2023-04-05T00:04:14;102019.28;;;-1.08;100.00
53619;BME280;68717;53.040;18.488;2023-04-05T00:04:32;102021.06;;;-1.10;100.00
53619;BME280;68717;53.040;18.488;2023-04-05T00:04:46;102021.06;;;-1.10;100.00
53619;BME280;68717;53.040;18.488;2023-04-05T00:05:04;102026.34;;;-1.10;100.00
53619;BME280;68717;53.040;18.488;2023-04-05T00:05:16;102022.81;;;-1.09;100.00
53619;BME280;68717;53.040;18.488;2023-04-05T00:05:40;102016.66;;;-1.09;100.00
53619;BME280;68717;53.040;18.488;2023-04-05T00:05:53;102023.69;;;-1.10;100.00
53619;BME280;68717;53.040;18.488;2023-04-05T00:06:06;102023.69;;;-1.08;100.00
53619;BME280;68717;53.040;18.488;2023-04-05T00:06:19;102021.06;;;-1.08;100.00
53619;BME280;68717;53.040;18.488;2023-04-05T00:06:33;102021.94;;;-1.09;100.00
53619;BME280;68717;53.040;18.488;2023-04-05T00:06:46;102016.66;;;-1.09;100.00
53619;BME280;68717;53.040;18.488;2023-04-05T00:07:01;102015.78;;;-1.08;100.00
53619;BME280;68717;53.040;18.488;2023-04-05T00:07:21;102020.13;;;-1.07;100.00
53619;BME280;68717;53.040;18.488;2023-04-05T00:07:33;102020.13;;;-1.07;100.00
53619;BME280;68717;53.040;18.488;2023-04-05T00:07:47;102020.13;;;-1.07;100.00
53619;BME280;68717;53.040;18.488;2023-04-05T00:08:05;102021.03;;;-1.07;100.00
53619;BME280;68717;53.040;18.488;2023-04-05T00:08:24;102021.03;;;-1.07;100.00
53619;BME280;68717;53.040;18.488;2023-04-05T00:08:39;102020.13;;;-1.07;100.00
53619;BME280;68717;53.040;18.488;2023-04-05T00:08:52;102021.03;;;-1.07;100.00
53619;BME280;68717;53.040;18.488;2023-04-05T00:09:07;102020.13;;;-1.07;100.00
53619;BME280;68717;53.040;18.488;2023-04-05T00:09:20;102021.03;;;-1.07;100.00
53619;BME280;68717;53.040;18.488;2023-04-05T00:09:33;102021.91;;;-1.06;100.00
53619;BME280;68717;53.040;18.488;2023-04-05T00:09:47;102019.28;;;-1.08;100.00
53619;BME280;68717;53.040;18.488;2023-04-05T00:10:00;102024.53;;;-1.08;100.00
53619;BME280;68717;53.040;18.488;2023-04-05T00:10:12;102020.19;;;-1.09;100.00
53619;BME280;68717;53.040;18.488;2023-04-05T00:10:25;102024.53;;;-1.08;100.00
53619;BME280;68717;53.040;18.488;2023-04-05T00:10:38;102020.19;;;-1.09;100.00
53619;BME280;68717;53.040;18.488;2023-04-05T00:10:52;102026.34;;;-1.10;100.00
53619;BME280;68717;53.040;18.488;2023-04-05T00:11:05;102021.97;;;-1.11;100.00
53619;BME280;68717;53.040;18.488;2023-04-05T00:11:18;102021.97;;;-1.11;100.00
53619;BME280;68717;53.040;18.488;2023-04-05T00:11:32;102018.44;;;-1.10;100.00
53619;BME280;68717;53.040;18.488;2023-04-05T00:11:45;102021.97;;;-1.11;100.00
53619;BME280;68717;53.040;18.488;2023-04-05T00:11:58;102023.75;;;-1.11;100.00
53619;BME280;68717;53.040;18.488;2023-04-05T00:12:12;102014.97;;;-1.12;100.00
53619;BME280;68717;53.040;18.488;2023-04-05T00:12:25;102022.00;;;-1.12;100.00
53619;BME280;68717;53.040;18.488;2023-04-05T00:12:37;102019.38;;;-1.12;100.00
53619;BME280;68717;53.040;18.488;2023-04-05T00:12:50;102021.13;;;-1.13;100.00
53619;BME280;68717;53.040;18.488;2023-04-05T00:13:03;102026.41;;;-1.13;100.00
53619;BME280;68717;53.040;18.488;2023-04-05T00:13:16;102026.41;;;-1.13;100.00
53619;BME280;68717;53.040;18.488;2023-04-05T00:13:29;102022.94;;;-1.15;100.00
53619;BME280;68717;53.040;18.488;2023-04-05T00:13:41;102021.16;;;-1.14;100.00
53619;BME280;68717;53.040;18.488;2023-04-05T00:13:55;102021.16;;;-1.16;100.00
53619;BME280;68717;53.040;18.488;2023-04-05T00:14:08;102023.75;;;-1.13;100.00
53619;BME280;68717;53.040;18.488;2023-04-05T00:14:21;102019.38;;;-1.14;100.00
53619;BME280;68717;53.040;18.488;2023-04-05T00:14:33;102021.13;;;-1.13;100.00
53619;BME280;68717;53.040;18.488;2023-04-05T00:14:46;102024.66;;;-1.14;100.00
53619;BME280;68717;53.040;18.488;2023-04-05T00:15:00;102028.16;;;-1.13;100.00
53619;BME280;68717;53.040;18.488;2023-04-05T00:15:12;102020.28;;;-1.13;100.00
53619;BME280;68717;53.040;18.488;2023-04-05T00:15:26;102010.66;;;-1.16;100.00
53619;BME280;68717;53.040;18.488;2023-04-05T00:15:39;102021.13;;;-1.13;100.00
53619;BME280;68717;53.040;18.488;2023-04-05T00:15:52;102020.28;;;-1.13;100.00
53619;BME280;68717;53.040;18.488;2023-04-05T00:16:05;102016.75;;;-1.14;100.00
53619;BME280;68717;53.040;18.488;2023-04-05T00:16:19;102020.22;;;-1.12;100.00
53619;BME280;68717;53.040;18.488;2023-04-05T00:16:33;102017.59;;;-1.12;100.00
53619;BME280;68717;53.040;18.488;2023-04-05T00:16:47;102015.88;;;-1.13;100.00
53619;BME280;68717;53.040;18.488;2023-04-05T00:17:00;102020.22;;;-1.12;100.00
53619;BME280;68717;53.040;18.488;2023-04-05T00:17:13;102017.59;;;-1.12;100.00
53619;BME280;68717;53.040;18.488;2023-04-05T00:17:26;102019.38;;;-1.14;100.00
53619;BME280;68717;53.040;18.488;2023-04-05T00:17:40;102017.66;;;-1.15;100.00
53619;BME280;68717;53.040;18.488;2023-04-05T00:17:54;102018.53;;;-1.14;100.00
53619;BME280;68717;53.040;18.488;2023-04-05T00:18:07;102015.03;;;-1.15;100.00
53619;BME280;68717;53.040;18.488;2023-04-05T00:18:26;102022.09;;;-1.17;100.00
53619;BME280;68717;53.040;18.488;2023-04-05T00:18:39;102015.06;;;-1.18;100.00
53619;BME280;68717;53.040;18.488;2023-04-05T00:18:57;102025.56;;;-1.16;100.00
53619;BME280;68717;53.040;18.488;2023-04-05T00:19:11;102021.22;;;-1.19;100.00
53619;BME280;68717;53.040;18.488;2023-04-05T00:19:25;102016.88;;;-1.20;100.00
53619;BME280;68717;53.040;18.488;2023-04-05T00:19:37;102021.22;;;-1.19;100.00
53619;BME280;68717;53.040;18.488;2023-04-05T00:19:50;102019.50;;;-1.20;100.00
53619;BME280;68717;53.040;18.488;2023-04-05T00:20:09;102023.03;;;-1.21;100.00
53619;BME280;68717;53.040;18.488;2023-04-05T00:20:22;102021.31;;;-1.22;100.00
53619;BME280;68717;53.040;18.488;2023-04-05T00:20:35;102025.66;;;-1.22;100.00
53619;BME280;68717;53.040;18.488;2023-04-05T00:20:49;102024.81;;;-1.23;100.00
53619;BME280;68717;53.040;18.488;2023-04-05T00:21:03;102023.09;;;-1.24;100.00
53619;BME280;68717;53.040;18.488;2023-04-05T00:21:17;102018.69;;;-1.25;100.00
53619;BME280;68717;53.040;18.488;2023-04-05T00:21:33;102023.09;;;-1.25;100.00
53619;BME280;68717;53.040;18.488;2023-04-05T00:21:45;102022.25;;;-1.28;100.00
53619;BME280;68717;53.040;18.488;2023-04-05T00:21:58;102021.41;;;-1.28;100.00
53619;BME280;68717;53.040;18.488;2023-04-05T00:22:11;102018.78;;;-1.30;100.00
53619;BME280;68717;53.040;18.488;2023-04-05T00:22:26;102017.06;;;-1.32;100.00
53619;BME280;68717;53.040;18.488;2023-04-05T00:22:43;102019.72;;;-1.32;100.00
53619;BME280;68717;53.040;18.488;2023-04-05T00:22:56;102020.63;;;-1.35;100.00
53619;BME280;68717;53.040;18.488;2023-04-05T00:23:08;102019.75;;;-1.35;100.00
53619;BME280;68717;53.040;18.488;2023-04-05T00:23:21;102017.09;;;-1.35;100.00
53619;BME280;68717;53.040;18.488;2023-04-05T00:23:36;102024.13;;;-1.36;100.00
53619;BME280;68717;53.040;18.488;2023-04-05T00:23:51;102023.28;;;-1.36;100.00
53619;BME280;68717;53.040;18.488;2023-04-05T00:24:05;102020.66;;;-1.36;100.00
53619;BME280;68717;53.040;18.488;2023-04-05T00:24:19;102018.03;;;-1.36;100.00
53619;BME280;68717;53.040;18.488;2023-04-05T00:24:32;102021.56;;;-1.37;100.00
53619;BME280;68717;53.040;18.488;2023-04-05T00:24:45;102024.19;;;-1.37;100.00
53619;BME280;68717;53.040;18.488;2023-04-05T00:24:58;102015.41;;;-1.38;100.00
53619;BME280;68717;53.040;18.488;2023-04-05T00:25:10;102021.56;;;-1.37;100.00
53619;BME280;68717;53.040;18.488;2023-04-05T00:25:23;102026.81;;;-1.37;100.00
53619;BME280;68717;53.040;18.488;2023-04-05T00:25:37;102020.66;;;-1.38;100.00
53619;BME280;68717;53.040;18.488;2023-04-05T00:25:50;102020.66;;;-1.38;100.00
53619;BME280;68717;53.040;18.488;2023-04-05T00:26:02;102015.41;;;-1.38;100.00
53619;BME280;68717;53.040;18.488;2023-04-05T00:26:15;102023.28;;;-1.38;100.00
53619;BME280;68717;53.040;18.488;2023-04-05T00:26:28;102014.53;;;-1.38;100.00
53619;BME280;68717;53.040;18.488;2023-04-05T00:26:41;102021.56;;;-1.37;100.00
53619;BME280;68717;53.040;18.488;2023-04-05T00:26:55;102021.56;;;-1.37;100.00
53619;BME280;68717;53.040;18.488;2023-04-05T00:27:09;102020.66;;;-1.36;100.00
53619;BME280;68717;53.040;18.488;2023-04-05T00:27:21;102020.66;;;-1.36;100.00
53619;BME280;68717;53.040;18.488;2023-04-05T00:27:34;102023.28;;;-1.36;100.00
53619;BME280;68717;53.040;18.488;2023-04-05T00:27:47;102018.03;;;-1.36;100.00
53619;BME280;68717;53.040;18.488;2023-04-05T00:27:59;102017.09;;;-1.35;100.00
53619;BME280;68717;53.040;18.488;2023-04-05T00:28:12;102018.00;;;-1.35;100.00
53619;BME280;68717;53.040;18.488;2023-04-05T00:28:25;102015.38;;;-1.35;100.00
53619;BME280;68717;53.040;18.488;2023-04-05T00:28:38;102018.00;;;-1.35;100.00
53619;BME280;68717;53.040;18.488;2023-04-05T00:28:52;102020.63;;;-1.35;100.00
53619;BME280;68717;53.040;18.488;2023-04-05T00:29:04;102015.38;;;-1.35;100.00
53619;BME280;68717;53.040;18.488;2023-04-05T00:29:17;102016.22;;;-1.34;100.00
53619;BME280;68717;53.040;18.488;2023-04-05T00:29:30;102016.22;;;-1.33;100.00
53619;BME280;68717;53.040;18.488;2023-04-05T00:29:42;102011.00;;;-1.36;100.00
53619;BME280;68717;53.040;18.488;2023-04-05T00:29:55;102013.59;;;-1.34;100.00
53619;BME280;68717;53.040;18.488;2023-04-05T00:30:09;102008.34;;;-1.34;100.00
53619;BME280;68717;53.040;18.488;2023-04-05T00:30:22;102014.47;;;-1.34;100.00
53619;BME280;68717;53.040;18.488;2023-04-05T00:30:35;102015.31;;;-1.33;100.00
53619;BME280;68717;53.040;18.488;2023-04-05T00:30:47;102012.69;;;-1.33;100.00
53619;BME280;68717;53.040;18.488;2023-04-05T00:31:00;102008.31;;;-1.33;100.00
53619;BME280;68717;53.040;18.488;2023-04-05T00:31:13;102010.97;;;-1.34;100.00
53619;BME280;68717;53.040;18.488;2023-04-05T00:31:25;102017.97;;;-1.33;100.00
53619;BME280;68717;53.040;18.488;2023-04-05T00:31:39;102019.75;;;-1.35;100.00
53619;BME280;68717;53.040;18.488;2023-04-05T00:31:52;102023.22;;;-1.33;100.00
53619;BME280;68717;53.040;18.488;2023-04-05T00:32:05;102007.50;;;-1.36;100.00
53619;BME280;68717;53.040;18.488;2023-04-05T00:32:18;102008.41;;;-1.37;100.00
53619;BME280;68717;53.040;18.488;2023-04-05T00:32:30;102007.56;;;-1.39;100.00
53619;BME280;68717;53.040;18.488;2023-04-05T00:32:43;102009.38;;;-1.43;100.00
53619;BME280;68717;53.040;18.488;2023-04-05T00:32:59;102006.75;;;-1.44;100.00
53619;BME280;68717;53.040;18.488;2023-04-05T00:33:13;102008.53;;;-1.45;100.00
53619;BME280;68717;53.040;18.488;2023-04-05T00:33:26;102011.16;;;-1.46;100.00
53619;BME280;68717;53.040;18.488;2023-04-05T00:33:38;102005.03;;;-1.47;100.00
53619;BME280;68717;53.040;18.488;2023-04-05T00:33:51;102006.81;;;-1.49;100.00
53619;BME280;68717;53.040;18.488;2023-04-05T00:34:03;102008.59;;;-1.48;100.00
53619;BME280;68717;53.040;18.488;2023-04-05T00:34:20;102012.94;;;-1.49;100.00
53619;BME280;68717;53.040;18.488;2023-04-05T00:34:33;102011.22;;;-1.50;100.00
53619;BME280;68717;53.040;18.488;2023-04-05T00:34:45;102004.22;;;-1.51;100.00
53619;BME280;68717;53.040;18.488;2023-04-05T00:34:58;102010.38;;;-1.52;100.00
53619;BME280;68717;53.040;18.488;2023-04-05T00:35:11;102004.28;;;-1.54;100.00
53619;BME280;68717;53.040;18.488;2023-04-05T00:35:26;102005.19;;;-1.55;100.00
53619;BME280;68717;53.040;18.488;2023-04-05T00:35:38;102006.91;;;-1.55;100.00
53619;BME280;68717;53.040;18.488;2023-04-05T00:35:51;102006.06;;;-1.56;100.00
53619;BME280;68717;53.040;18.488;2023-04-05T00:36:09;102006.97;;;-1.58;100.00
53619;BME280;68717;53.040;18.488;2023-04-05T00:36:22;102006.97;;;-1.58;100.00
53619;BME280;68717;53.040;18.488;2023-04-05T00:36:35;102004.38;;;-1.60;100.00
53619;BME280;68717;53.040;18.488;2023-04-05T00:36:48;102007.00;;;-1.61;100.00
53619;BME280;68717;53.040;18.488;2023-04-05T00:37:00;102006.16;;;-1.62;100.00
53619;BME280;68717;53.040;18.488;2023-04-05T00:37:14;102007.06;;;-1.63;100.00
53619;BME280;68717;53.040;18.488;2023-04-05T00:37:28;102006.22;;;-1.65;100.00
53619;BME280;68717;53.040;18.488;2023-04-05T00:37:41;102010.63;;;-1.67;100.00
53619;BME280;68717;53.040;18.488;2023-04-05T00:37:54;102006.25;;;-1.68;100.00
53619;BME280;68717;53.040;18.488;2023-04-05T00:38:07;101997.50;;;-1.69;100.00
53619;BME280;68717;53.040;18.488;2023-04-05T00:38:20;101999.25;;;-1.69;100.00
53619;BME280;68717;53.040;18.488;2023-04-05T00:38:33;101999.25;;;-1.69;100.00
53619;BME280;68717;53.040;18.488;2023-04-05T00:38:47;102001.91;;;-1.71;100.00
53619;BME280;68717;53.040;18.488;2023-04-05T00:39:01;101998.41;;;-1.71;100.00
53619;BME280;68717;53.040;18.488;2023-04-05T00:39:13;101999.31;;;-1.72;100.00
53619;BME280;68717;53.040;18.488;2023-04-05T00:39:26;102006.31;;;-1.71;100.00
53619;BME280;68717;53.040;18.488;2023-04-05T00:39:39;102001.91;;;-1.71;100.00
53619;BME280;68717;53.040;18.488;2023-04-05T00:39:53;102003.66;;;-1.71;100.00
53619;BME280;68717;53.040;18.488;2023-04-05T00:40:07;101994.94;;;-1.72;100.00
53619;BME280;68717;53.040;18.488;2023-04-05T00:40:20;102000.19;;;-1.72;100.00
53619;BME280;68717;53.040;18.488;2023-04-05T00:40:33;101994.06;;;-1.72;100.00
53619;BME280;68717;53.040;18.488;2023-04-05T00:40:45;101996.69;;;-1.72;100.00
53619;BME280;68717;53.040;18.488;2023-04-05T00:40:58;101995.81;;;-1.73;100.00
53619;BME280;68717;53.040;18.488;2023-04-05T00:41:11;101994.94;;;-1.72;100.00
53619;BME280;68717;53.040;18.488;2023-04-05T00:41:25;101994.94;;;-1.72;100.00
53619;BME280;68717;53.040;18.488;2023-04-05T00:41:38;101997.50;;;-1.70;100.00
53619;BME280;68717;53.040;18.488;2023-04-05T00:41:51;101992.25;;;-1.70;100.00
53619;BME280;68717;53.040;18.488;2023-04-05T00:42:04;101993.13;;;-1.70;100.00
53619;BME280;68717;53.040;18.488;2023-04-05T00:42:17;101993.13;;;-1.70;100.00
53619;BME280;68717;53.040;18.488;2023-04-05T00:42:30;101988.75;;;-1.69;100.00
53619;BME280;68717;53.040;18.488;2023-04-05T00:42:42;101993.97;;;-1.67;100.00
53619;BME280;68717;53.040;18.488;2023-04-05T00:42:56;101992.22;;;-1.67;100.00
53619;BME280;68717;53.040;18.488;2023-04-05T00:43:08;101989.59;;;-1.67;100.00
53619;BME280;68717;53.040;18.488;2023-04-05T00:43:21;101986.09;;;-1.67;100.00
53619;BME280;68717;53.040;18.488;2023-04-05T00:43:34;101993.06;;;-1.66;100.00
53619;BME280;68717;53.040;18.488;2023-04-05T00:43:48;101982.56;;;-1.66;100.00
53619;BME280;68717;53.040;18.488;2023-04-05T00:44:00;101994.84;;;-1.65;100.00
53619;BME280;68717;53.040;18.488;2023-04-05T00:44:15;101986.06;;;-1.66;100.00
53619;BME280;68717;53.040;18.488;2023-04-05T00:44:27;101988.69;;;-1.66;100.00
53619;BME280;68717;53.040;18.488;2023-04-05T00:44:45;101991.31;;;-1.66;100.00
53619;BME280;68717;53.040;18.488;2023-04-05T00:44:58;101987.81;;;-1.66;100.00
53619;BME280;68717;53.040;18.488;2023-04-05T00:45:12;101993.06;;;-1.66;100.00
53619;BME280;68717;53.040;18.488;2023-04-05T00:45:25;101988.69;;;-1.66;100.00
53619;BME280;68717;53.040;18.488;2023-04-05T00:45:38;101986.97;;;-1.67;100.00
53619;BME280;68717;53.040;18.488;2023-04-05T00:45:51;101993.94;;;-1.66;100.00
53619;BME280;68717;53.040;18.488;2023-04-05T00:46:06;101993.94;;;-1.66;100.00
53619;BME280;68717;53.040;18.488;2023-04-05T00:46:19;101989.56;;;-1.65;100.00
53619;BME280;68717;53.040;18.488;2023-04-05T00:46:33;101990.44;;;-1.65;100.00
53619;BME280;68717;53.040;18.488;2023-04-05T00:46:46;101992.19;;;-1.65;100.00
53619;BME280;68717;53.040;18.488;2023-04-05T00:46:59;101995.69;;;-1.65;100.00
53619;BME280;68717;53.040;18.488;2023-04-05T00:47:12;101990.44;;;-1.65;100.00
53619;BME280;68717;53.040;18.488;2023-04-05T00:47:26;101990.44;;;-1.65;100.00
53619;BME280;68717;53.040;18.488;2023-04-05T00:47:40;101997.41;;;-1.64;100.00
53619;BME280;68717;53.040;18.488;2023-04-05T00:47:53;101987.81;;;-1.65;100.00
53619;BME280;68717;53.040;18.488;2023-04-05T00:48:07;101997.47;;;-1.65;100.00
53619;BME280;68717;53.040;18.488;2023-04-05T00:48:20;101993.06;;;-1.65;100.00
53619;BME280;68717;53.040;18.488;2023-04-05T00:48:33;101990.44;;;-1.65;100.00
53619;BME280;68717;53.040;18.488;2023-04-05T00:48:46;101990.44;;;-1.65;100.00
53619;BME280;68717;53.040;18.488;2023-04-05T00:49:00;101991.31;;;-1.66;100.00
53619;BME280;68717;53.040;18.488;2023-04-05T00:49:13;101999.19;;;-1.66;100.00
53619;BME280;68717;53.040;18.488;2023-04-05T00:49:27;101989.56;;;-1.65;100.00
53619;BME280;68717;53.040;18.488;2023-04-05T00:49:40;101993.94;;;-1.66;100.00
53619;BME280;68717;53.040;18.488;2023-04-05T00:49:53;101994.84;;;-1.67;100.00
53619;BME280;68717;53.040;18.488;2023-04-05T00:50:08;101993.09;;;-1.68;100.00
53619;BME280;68717;53.040;18.488;2023-04-05T00:50:21;101989.59;;;-1.67;100.00
53619;BME280;68717;53.040;18.488;2023-04-05T00:50:35;101995.72;;;-1.68;100.00
53619;BME280;68717;53.040;18.488;2023-04-05T00:50:49;101988.75;;;-1.69;100.00
53619;BME280;68717;53.040;18.488;2023-04-05T00:51:02;101991.38;;;-1.69;100.00
53619;BME280;68717;53.040;18.488;2023-04-05T00:51:15;101987.88;;;-1.70;100.00
53619;BME280;68717;53.040;18.488;2023-04-05T00:51:29;101989.63;;;-1.70;100.00
53619;BME280;68717;53.040;18.488;2023-04-05T00:51:42;101990.50;;;-1.70;100.00
53619;BME280;68717;53.040;18.488;2023-04-05T00:51:57;101994.88;;;-1.70;100.00
53619;BME280;68717;53.040;18.488;2023-04-05T00:52:10;101986.13;;;-1.71;100.00
53619;BME280;68717;53.040;18.488;2023-04-05T00:52:24;101988.75;;;-1.69;100.00
53619;BME280;68717;53.040;18.488;2023-04-05T00:52:39;101987.91;;;-1.71;100.00
53619;BME280;68717;53.040;18.488;2023-04-05T00:52:53;101995.78;;;-1.71;100.00
53619;BME280;68717;53.040;18.488;2023-04-05T00:53:06;101994.94;;;-1.72;100.00
53619;BME280;68717;53.040;18.488;2023-04-05T00:53:20;101994.06;;;-1.72;100.00
53619;BME280;68717;53.040;18.488;2023-04-05T00:53:32;101990.53;;;-1.71;100.00
53619;BME280;68717;53.040;18.488;2023-04-05T00:53:46;101989.66;;;-1.72;100.00
53619;BME280;68717;53.040;18.488;2023-04-05T00:54:04;101991.44;;;-1.72;100.00
53619;BME280;68717;53.040;18.488;2023-04-05T00:54:17;101988.81;;;-1.72;100.00
53619;BME280;68717;53.040;18.488;2023-04-05T00:54:30;101987.06;;;-1.73;100.00
53619;BME280;68717;53.040;18.488;2023-04-05T00:54:43;101991.44;;;-1.72;100.00
53619;BME280;68717;53.040;18.488;2023-04-05T00:54:56;101993.16;;;-1.73;100.00
53619;BME280;68717;53.040;18.488;2023-04-05T00:55:10;101994.94;;;-1.72;100.00
53619;BME280;68717;53.040;18.488;2023-04-05T00:55:24;101999.31;;;-1.72;100.00
53619;BME280;68717;53.040;18.488;2023-04-05T00:55:38;101994.06;;;-1.72;100.00
53619;BME280;68717;53.040;18.488;2023-04-05T00:55:51;101997.56;;;-1.73;100.00
53619;BME280;68717;53.040;18.488;2023-04-05T00:56:04;101990.53;;;-1.73;100.00
53619;BME280;68717;53.040;18.488;2023-04-05T00:56:18;101987.91;;;-1.73;100.00
53619;BME280;68717;53.040;18.488;2023-04-05T00:56:33;101992.31;;;-1.73;100.00
53619;BME280;68717;53.040;18.488;2023-04-05T00:56:47;101994.94;;;-1.73;100.00
53619;BME280;68717;53.040;18.488;2023-04-05T00:57:04;101993.16;;;-1.73;100.00
53619;BME280;68717;53.040;18.488;2023-04-05T00:57:18;101994.94;;;-1.73;100.00
53619;BME280;68717;53.040;18.488;2023-04-05T00:57:31;101991.44;;;-1.74;100.00
53619;BME280;68717;53.040;18.488;2023-04-05T00:57:45;101989.69;;;-1.73;100.00
53619;BME280;68717;53.040;18.488;2023-04-05T00:58:01;101993.22;;;-1.74;100.00
53619;BME280;68717;53.040;18.488;2023-04-05T00:58:16;101992.31;;;-1.75;100.00
53619;BME280;68717;53.040;18.488;2023-04-05T00:58:30;101990.59;;;-1.74;100.00
53619;BME280;68717;53.040;18.488;2023-04-05T00:58:45;101992.31;;;-1.73;100.00
53619;BME280;68717;53.040;18.488;2023-04-05T00:59:00;101992.31;;;-1.73;100.00
53619;BME280;68717;53.040;18.488;2023-04-05T00:59:13;101993.22;;;-1.74;100.00
53619;BME280;68717;53.040;18.488;2023-04-05T00:59:26;101995.84;;;-1.74;100.00
53619;BME280;68717;53.040;18.488;2023-04-05T00:59:40;101997.59;;;-1.75;100.00
53619;BME280;68717;53.040;18.488;2023-04-05T00:59:53;101991.47;;;-1.75;100.00
53619;BME280;68717;53.040;18.488;2023-04-05T01:00:07;101989.75;;;-1.76;100.00
53619;BME280;68717;53.040;18.488;2023-04-05T01:00:23;101987.13;;;-1.76;100.00
53619;BME280;68717;53.040;18.488;2023-04-05T01:00:37;101996.72;;;-1.77;100.00
53619;BME280;68717;53.040;18.488;2023-04-05T01:00:59;101995.00;;;-1.76;100.00
53619;BME280;68717;53.040;18.488;2023-04-05T01:01:18;101995.00;;;-1.76;100.00
53619;BME280;68717;53.040;18.488;2023-04-05T01:01:31;101993.22;;;-1.76;100.00
53619;BME280;68717;53.040;18.488;2023-04-05T01:01:54;101993.25;;;-1.77;100.00
53619;BME280;68717;53.040;18.488;2023-04-05T01:02:12;101991.47;;;-1.77;100.00
53619;BME280;68717;53.040;18.488;2023-04-05T01:02:31;101991.53;;;-1.78;100.00
53619;BME280;68717;53.040;18.488;2023-04-05T01:02:48;101992.41;;;-1.79;100.00
53619;BME280;68717;53.040;18.488;2023-04-05T01:03:04;101995.94;;;-1.80;100.00
53619;BME280;68717;53.040;18.488;2023-04-05T01:03:18;101996.78;;;-1.80;100.00
53619;BME280;68717;53.040;18.488;2023-04-05T01:03:34;101991.56;;;-1.81;100.00
53619;BME280;68717;53.040;18.488;2023-04-05T01:03:52;101994.19;;;-1.81;100.00
53619;BME280;68717;53.040;18.488;2023-04-05T01:04:11;101999.44;;;-1.81;100.00
53619;BME280;68717;53.040;18.488;2023-04-05T01:04:27;101997.72;;;-1.82;100.00
53619;BME280;68717;53.040;18.488;2023-04-05T01:04:43;101995.09;;;-1.82;100.00
53619;BME280;68717;53.040;18.488;2023-04-05T01:05:03;101989.84;;;-1.85;100.00
53619;BME280;68717;53.040;18.488;2023-04-05T01:05:28;101996.84;;;-1.83;100.00
53619;BME280;68717;53.040;18.488;2023-04-05T01:05:46;101994.25;;;-1.84;100.00
53619;BME280;68717;53.040;18.488;2023-04-05T01:06:15;101993.38;;;-1.85;100.00
53619;BME280;68717;53.040;18.488;2023-04-05T01:06:43;101994.25;;;-1.86;100.00
53619;BME280;68717;53.040;18.488;2023-04-05T01:07:06;101995.16;;;-1.87;100.00
53619;BME280;68717;53.040;18.488;2023-04-05T01:07:24;101994.25;;;-1.87;100.00
53619;BME280;68717;53.040;18.488;2023-04-05T01:07:48;101996.88;;;-1.87;100.00
53619;BME280;68717;53.040;18.488;2023-04-05T01:08:07;101996.03;;;-1.88;100.00
53619;BME280;68717;53.040;18.488;2023-04-05T01:08:34;101990.81;;;-1.90;100.00
53619;BME280;68717;53.040;18.488;2023-04-05T01:08:56;101989.94;;;-1.90;100.00
53619;BME280;68717;53.040;18.488;2023-04-05T01:09:20;101993.47;;;-1.91;100.00
53619;BME280;68717;53.040;18.488;2023-04-05T01:09:42;101991.75;;;-1.94;100.00
53619;BME280;68717;53.040;18.488;2023-04-05T01:09:58;101995.25;;;-1.95;100.00
53619;BME280;68717;53.040;18.488;2023-04-05T01:10:12;101994.41;;;-1.97;100.00
53619;BME280;68717;53.040;18.488;2023-04-05T01:10:31;101990.06;;;-1.98;100.00
53619;BME280;68717;53.040;18.488;2023-04-05T01:10:50;101988.31;;;-1.99;100.00
53619;BME280;68717;53.040;18.488;2023-04-05T01:11:08;101986.56;;;-2.00;100.00
53619;BME280;68717;53.040;18.488;2023-04-05T01:11:22;101987.44;;;-2.01;100.00
53619;BME280;68717;53.040;18.488;2023-04-05T01:11:37;101979.63;;;-2.04;100.00
53619;BME280;68717;53.040;18.488;2023-04-05T01:11:51;101988.34;;;-2.02;100.00
53619;BME280;68717;53.040;18.488;2023-04-05T01:12:09;101986.59;;;-2.03;100.00
53619;BME280;68717;53.040;18.488;2023-04-05T01:12:27;101991.84;;;-2.03;100.00
53619;BME280;68717;53.040;18.488;2023-04-05T01:12:43;101984.94;;;-2.07;100.00
53619;BME280;68717;53.040;18.488;2023-04-05T01:12:57;101983.16;;;-2.06;100.00
53619;BME280;68717;53.040;18.488;2023-04-05T01:13:10;101986.69;;;-2.07;100.00
53619;BME280;68717;53.040;18.488;2023-04-05T01:13:24;101985.81;;;-2.08;100.00